Etusivu
METAR-TAF:

METAR-TAF

Lentoasemat :

Opelousas, Louisiana, Yhdysvallat

Leveyspiiri: 30-33-30N, Pituuspiiri: 092-05-58W, korkeus merenpinnasta: 23 m

Tämänhetkinen sää

Tämä raportti tehtiin 26 minuuttia sitten, kello 11.55 UTC
Tuuli 4 kn kaakosta
Lämpötila 14°C
Kosteus 88%
Ilmanpaine 1013 hPa
Näkyvyys: 16.1 km
Hajonneita pilviä 4600 ft:n korkeudessa
Pilvistä 6500 ft:n korkeudessa

METAR: KOPL 241155Z AUTO 14004KT 10SM BKN046 OVC065 14/12 A2990 RMK AO2 T01410118 10147 20140

Aika: 06:21 (12:21 UTC)


TAF: puuttuu

Säähavainnot ja -ennusteet yli 4000 lentoasemalta (METAR- ja TAF-raportit).

Käytössä olevat sääasemat on merkitty karttaan keltaisilla ja punaisilla pisteillä.

Aseta hiiri pisteen päälle nähdäksesi sääaseman nimen.

Klikkaa sitten nähdäksesi säähavainnot ja -ennusteet.

Kartan vaihtaminen: klikkaa mustalla rastilla varustettuja vihreitä pisteitä, niin voit zoomata sisään; viivalla varustettua vihreää pistettä, niin voit zoomata ulos tai vihreitä nuolia, niin pääset viereisille kartoille.


METAR-TAF: